sensor_id;sensor_type;location;lat;lon;timestamp;temperature;humidity
54126;DHT22;40360;52.992;6.796;2023-07-29T00:01:16;18.30;99.90
54126;DHT22;40360;52.992;6.796;2023-07-29T00:03:41;18.30;99.90
54126;DHT22;40360;52.992;6.796;2023-07-29T00:06:07;18.20;99.90
54126;DHT22;40360;52.992;6.796;2023-07-29T00:08:32;18.20;99.90
54126;DHT22;40360;52.992;6.796;2023-07-29T00:10:58;18.10;99.90
54126;DHT22;40360;52.992;6.796;2023-07-29T00:13:24;18.10;99.90
54126;DHT22;40360;52.992;6.796;2023-07-29T00:15:50;18.10;99.90
54126;DHT22;40360;52.992;6.796;2023-07-29T00:18:15;18.00;99.90
54126;DHT22;40360;52.992;6.796;2023-07-29T00:20:41;18.00;99.90
54126;DHT22;40360;52.992;6.796;2023-07-29T00:23:06;18.00;99.90
54126;DHT22;40360;52.992;6.796;2023-07-29T00:25:32;17.90;99.90
54126;DHT22;40360;52.992;6.796;2023-07-29T00:27:59;18.00;99.90
54126;DHT22;40360;52.992;6.796;2023-07-29T00:30:24;17.90;99.90
54126;DHT22;40360;52.992;6.796;2023-07-29T00:32:50;17.90;99.90
54126;DHT22;40360;52.992;6.796;2023-07-29T00:35:15;17.90;99.90
54126;DHT22;40360;52.992;6.796;2023-07-29T00:37:41;17.80;99.90
54126;DHT22;40360;52.992;6.796;2023-07-29T00:40:14;17.80;99.90
54126;DHT22;40360;52.992;6.796;2023-07-29T00:42:41;17.70;99.90
54126;DHT22;40360;52.992;6.796;2023-07-29T00:45:09;17.80;99.90
54126;DHT22;40360;52.992;6.796;2023-07-29T00:47:34;17.70;99.90
54126;DHT22;40360;52.992;6.796;2023-07-29T00:50:00;17.70;99.90
54126;DHT22;40360;52.992;6.796;2023-07-29T00:52:26;17.70;99.90
54126;DHT22;40360;52.992;6.796;2023-07-29T00:54:52;17.70;99.90
54126;DHT22;40360;52.992;6.796;2023-07-29T00:57:18;17.70;99.90
54126;DHT22;40360;52.992;6.796;2023-07-29T00:59:44;17.70;99.90
54126;DHT22;40360;52.992;6.796;2023-07-29T01:02:10;17.70;99.90
54126;DHT22;40360;52.992;6.796;2023-07-29T01:04:36;17.80;99.90
54126;DHT22;40360;52.992;6.796;2023-07-29T01:07:21;17.70;99.90
54126;DHT22;40360;52.992;6.796;2023-07-29T01:10:07;17.70;99.90
54126;DHT22;40360;52.992;6.796;2023-07-29T01:12:49;17.70;99.90
54126;DHT22;40360;52.992;6.796;2023-07-29T01:15:20;17.60;99.90
54126;DHT22;40360;52.992;6.796;2023-07-29T01:18:05;17.60;99.90
54126;DHT22;40360;52.992;6.796;2023-07-29T01:20:33;17.60;99.90
54126;DHT22;40360;52.992;6.796;2023-07-29T01:22:59;17.60;99.90
54126;DHT22;40360;52.992;6.796;2023-07-29T01:25:25;17.60;99.90
54126;DHT22;40360;52.992;6.796;2023-07-29T01:27:52;17.60;99.90
54126;DHT22;40360;52.992;6.796;2023-07-29T01:30:19;17.50;99.90
54126;DHT22;40360;52.992;6.796;2023-07-29T01:32:59;17.50;99.90
54126;DHT22;40360;52.992;6.796;2023-07-29T01:35:36;17.50;99.90
54126;DHT22;40360;52.992;6.796;2023-07-29T01:38:09;17.50;99.90
54126;DHT22;40360;52.992;6.796;2023-07-29T01:40:38;17.50;99.90
54126;DHT22;40360;52.992;6.796;2023-07-29T01:43:04;17.50;99.90
54126;DHT22;40360;52.992;6.796;2023-07-29T01:45:30;17.50;99.90
54126;DHT22;40360;52.992;6.796;2023-07-29T01:48:00;17.50;99.90
54126;DHT22;40360;52.992;6.796;2023-07-29T01:50:26;17.50;99.90
54126;DHT22;40360;52.992;6.796;2023-07-29T01:52:51;17.40;99.90
54126;DHT22;40360;52.992;6.796;2023-07-29T01:55:17;17.40;99.90
54126;DHT22;40360;52.992;6.796;2023-07-29T01:57:43;17.50;99.90
54126;DHT22;40360;52.992;6.796;2023-07-29T02:00:13;17.40;99.90
54126;DHT22;40360;52.992;6.796;2023-07-29T02:02:38;17.30;99.90
54126;DHT22;40360;52.992;6.796;2023-07-29T02:05:04;17.30;99.90
54126;DHT22;40360;52.992;6.796;2023-07-29T02:07:30;17.30;99.90
54126;DHT22;40360;52.992;6.796;2023-07-29T02:09:56;17.20;99.90
54126;DHT22;40360;52.992;6.796;2023-07-29T02:12:21;17.20;99.90
54126;DHT22;40360;52.992;6.796;2023-07-29T02:14:47;17.10;99.90
54126;DHT22;40360;52.992;6.796;2023-07-29T02:17:12;17.10;99.90
54126;DHT22;40360;52.992;6.796;2023-07-29T02:19:38;17.00;99.90
54126;DHT22;40360;52.992;6.796;2023-07-29T02:22:04;17.00;99.90
54126;DHT22;40360;52.992;6.796;2023-07-29T02:24:29;17.00;99.90
54126;DHT22;40360;52.992;6.796;2023-07-29T02:26:55;17.00;99.90
54126;DHT22;40360;52.992;6.796;2023-07-29T02:29:21;17.00;99.90
54126;DHT22;40360;52.992;6.796;2023-07-29T02:31:47;17.00;99.90
54126;DHT22;40360;52.992;6.796;2023-07-29T02:34:13;17.00;99.90
54126;DHT22;40360;52.992;6.796;2023-07-29T02:36:39;17.00;99.90
54126;DHT22;40360;52.992;6.796;2023-07-29T02:39:05;17.00;99.90
54126;DHT22;40360;52.992;6.796;2023-07-29T02:41:31;17.00;99.90
54126;DHT22;40360;52.992;6.796;2023-07-29T02:43:57;16.90;99.90
54126;DHT22;40360;52.992;6.796;2023-07-29T02:46:22;17.00;99.90
54126;DHT22;40360;52.992;6.796;2023-07-29T02:48:49;17.00;99.90
54126;DHT22;40360;52.992;6.796;2023-07-29T02:51:14;17.00;99.90
54126;DHT22;40360;52.992;6.796;2023-07-29T02:53:40;17.00;99.90
54126;DHT22;40360;52.992;6.796;2023-07-29T02:56:06;16.90;99.90
54126;DHT22;40360;52.992;6.796;2023-07-29T02:58:34;16.90;99.90
54126;DHT22;40360;52.992;6.796;2023-07-29T03:01:01;16.90;99.90
54126;DHT22;40360;52.992;6.796;2023-07-29T03:03:27;16.90;99.90
54126;DHT22;40360;52.992;6.796;2023-07-29T03:06:04;16.90;99.90
54126;DHT22;40360;52.992;6.796;2023-07-29T03:08:30;16.90;99.90
54126;DHT22;40360;52.992;6.796;2023-07-29T03:10:56;17.00;99.90
54126;DHT22;40360;52.992;6.796;2023-07-29T03:13:22;17.00;99.90
54126;DHT22;40360;52.992;6.796;2023-07-29T03:15:48;17.00;99.90
54126;DHT22;40360;52.992;6.796;2023-07-29T03:18:14;16.90;99.90
54126;DHT22;40360;52.992;6.796;2023-07-29T03:20:40;17.00;99.90
54126;DHT22;40360;52.992;6.796;2023-07-29T03:23:06;17.10;99.90
54126;DHT22;40360;52.992;6.796;2023-07-29T03:25:32;17.00;99.90
54126;DHT22;40360;52.992;6.796;2023-07-29T03:27:57;17.00;99.90
54126;DHT22;40360;52.992;6.796;2023-07-29T03:30:23;17.00;99.90
54126;DHT22;40360;52.992;6.796;2023-07-29T03:32:49;17.00;99.90
54126;DHT22;40360;52.992;6.796;2023-07-29T03:35:15;17.10;99.90
54126;DHT22;40360;52.992;6.796;2023-07-29T03:37:41;17.00;99.90
54126;DHT22;40360;52.992;6.796;2023-07-29T03:40:07;17.00;99.90
54126;DHT22;40360;52.992;6.796;2023-07-29T03:42:34;17.00;99.90
54126;DHT22;40360;52.992;6.796;2023-07-29T03:45:00;17.00;99.90
54126;DHT22;40360;52.992;6.796;2023-07-29T03:47:26;16.90;99.90
54126;DHT22;40360;52.992;6.796;2023-07-29T03:49:52;16.90;99.90
54126;DHT22;40360;52.992;6.796;2023-07-29T03:52:17;16.90;99.90
54126;DHT22;40360;52.992;6.796;2023-07-29T03:54:43;16.90;99.90
54126;DHT22;40360;52.992;6.796;2023-07-29T03:57:08;16.80;99.90
54126;DHT22;40360;52.992;6.796;2023-07-29T03:59:34;16.90;99.90
54126;DHT22;40360;52.992;6.796;2023-07-29T04:02:00;16.80;99.90
54126;DHT22;40360;52.992;6.796;2023-07-29T04:04:25;16.80;99.90
54126;DHT22;40360;52.992;6.796;2023-07-29T04:06:51;16.70;99.90
54126;DHT22;40360;52.992;6.796;2023-07-29T04:09:17;16.70;99.90
54126;DHT22;40360;52.992;6.796;2023-07-29T04:11:43;16.70;99.90
54126;DHT22;40360;52.992;6.796;2023-07-29T04:14:08;16.90;99.90
54126;DHT22;40360;52.992;6.796;2023-07-29T04:16:34;16.80;99.90
54126;DHT22;40360;52.992;6.796;2023-07-29T04:19:00;16.70;99.90
54126;DHT22;40360;52.992;6.796;2023-07-29T04:21:25;16.70;99.90
54126;DHT22;40360;52.992;6.796;2023-07-29T04:23:51;16.70;99.90
54126;DHT22;40360;52.992;6.796;2023-07-29T04:26:17;16.70;99.90
54126;DHT22;40360;52.992;6.796;2023-07-29T04:28:42;16.70;99.90
54126;DHT22;40360;52.992;6.796;2023-07-29T04:31:08;16.70;99.90
54126;DHT22;40360;52.992;6.796;2023-07-29T04:33:34;16.70;99.90
54126;DHT22;40360;52.992;6.796;2023-07-29T04:35:59;16.70;99.90
54126;DHT22;40360;52.992;6.796;2023-07-29T04:38:31;16.80;99.90
54126;DHT22;40360;52.992;6.796;2023-07-29T04:41:00;16.80;99.90
54126;DHT22;40360;52.992;6.796;2023-07-29T04:43:31;16.80;99.90
54126;DHT22;40360;52.992;6.796;2023-07-29T04:45:57;16.90;99.90
54126;DHT22;40360;52.992;6.796;2023-07-29T04:48:22;16.90;99.90
54126;DHT22;40360;52.992;6.796;2023-07-29T04:50:48;16.90;99.90
54126;DHT22;40360;52.992;6.796;2023-07-29T04:53:14;17.00;99.90
54126;DHT22;40360;52.992;6.796;2023-07-29T04:55:41;17.00;99.90
54126;DHT22;40360;52.992;6.796;2023-07-29T04:58:08;17.00;99.90
54126;DHT22;40360;52.992;6.796;2023-07-29T05:00:33;17.00;99.90
54126;DHT22;40360;52.992;6.796;2023-07-29T05:02:59;17.10;99.90
54126;DHT22;40360;52.992;6.796;2023-07-29T05:05:24;17.10;99.90
54126;DHT22;40360;52.992;6.796;2023-07-29T05:07:50;17.10;99.90
54126;DHT22;40360;52.992;6.796;2023-07-29T05:10:18;17.20;99.90
54126;DHT22;40360;52.992;6.796;2023-07-29T05:12:43;17.10;99.90
54126;DHT22;40360;52.992;6.796;2023-07-29T05:15:09;17.10;99.90
54126;DHT22;40360;52.992;6.796;2023-07-29T05:17:35;17.00;99.90
54126;DHT22;40360;52.992;6.796;2023-07-29T05:20:01;17.00;99.90
54126;DHT22;40360;52.992;6.796;2023-07-29T05:22:26;17.00;99.90
54126;DHT22;40360;52.992;6.796;2023-07-29T05:24:52;17.00;99.90
54126;DHT22;40360;52.992;6.796;2023-07-29T05:27:17;17.10;99.90
54126;DHT22;40360;52.992;6.796;2023-07-29T05:29:43;17.00;99.90
54126;DHT22;40360;52.992;6.796;2023-07-29T05:32:09;17.00;99.90
54126;DHT22;40360;52.992;6.796;2023-07-29T05:34:34;17.00;99.90
54126;DHT22;40360;52.992;6.796;2023-07-29T05:37:00;17.00;99.90
54126;DHT22;40360;52.992;6.796;2023-07-29T05:39:25;17.00;99.90
54126;DHT22;40360;52.992;6.796;2023-07-29T05:41:51;17.10;99.90
54126;DHT22;40360;52.992;6.796;2023-07-29T06:01:42;17.20;99.90
54126;DHT22;40360;52.992;6.796;2023-07-29T06:04:07;17.20;99.90
54126;DHT22;40360;52.992;6.796;2023-07-29T06:06:33;17.20;99.90
54126;DHT22;40360;52.992;6.796;2023-07-29T06:08:59;17.20;99.90
54126;DHT22;40360;52.992;6.796;2023-07-29T06:11:24;17.30;99.90
54126;DHT22;40360;52.992;6.796;2023-07-29T06:13:50;17.30;99.90
54126;DHT22;40360;52.992;6.796;2023-07-29T06:16:16;17.30;99.90
54126;DHT22;40360;52.992;6.796;2023-07-29T06:18:41;17.40;99.90
54126;DHT22;40360;52.992;6.796;2023-07-29T06:21:07;17.40;99.90
54126;DHT22;40360;52.992;6.796;2023-07-29T06:23:36;17.50;99.90
54126;DHT22;40360;52.992;6.796;2023-07-29T06:26:02;17.50;99.90
54126;DHT22;40360;52.992;6.796;2023-07-29T06:28:27;17.50;99.90
54126;DHT22;40360;52.992;6.796;2023-07-29T06:30:53;17.50;99.90
54126;DHT22;40360;52.992;6.796;2023-07-29T06:33:18;17.50;99.90
54126;DHT22;40360;52.992;6.796;2023-07-29T06:35:44;17.60;99.90
54126;DHT22;40360;52.992;6.796;2023-07-29T06:38:10;17.70;99.90
54126;DHT22;40360;52.992;6.796;2023-07-29T06:40:35;17.70;99.90
54126;DHT22;40360;52.992;6.796;2023-07-29T06:43:01;17.80;99.90
54126;DHT22;40360;52.992;6.796;2023-07-29T06:45:27;17.90;99.90
54126;DHT22;40360;52.992;6.796;2023-07-29T06:47:53;18.00;99.90
54126;DHT22;40360;52.992;6.796;2023-07-29T06:50:18;18.00;99.90
54126;DHT22;40360;52.992;6.796;2023-07-29T06:52:45;18.20;99.90
54126;DHT22;40360;52.992;6.796;2023-07-29T06:55:10;18.20;99.90
54126;DHT22;40360;52.992;6.796;2023-07-29T06:57:36;18.30;99.90
54126;DHT22;40360;52.992;6.796;2023-07-29T07:00:02;18.40;99.90
54126;DHT22;40360;52.992;6.796;2023-07-29T07:02:28;18.40;99.90
54126;DHT22;40360;52.992;6.796;2023-07-29T07:04:54;18.50;99.90
54126;DHT22;40360;52.992;6.796;2023-07-29T07:07:20;18.50;99.90
54126;DHT22;40360;52.992;6.796;2023-07-29T07:09:45;18.60;99.90
54126;DHT22;40360;52.992;6.796;2023-07-29T07:12:11;18.80;99.90
54126;DHT22;40360;52.992;6.796;2023-07-29T07:14:37;18.90;99.90
54126;DHT22;40360;52.992;6.796;2023-07-29T07:17:03;18.90;99.90
54126;DHT22;40360;52.992;6.796;2023-07-29T07:19:29;19.00;99.90
54126;DHT22;40360;52.992;6.796;2023-07-29T07:21:54;19.00;99.90
54126;DHT22;40360;52.992;6.796;2023-07-29T07:24:20;19.00;99.90
54126;DHT22;40360;52.992;6.796;2023-07-29T07:26:46;19.00;99.90
54126;DHT22;40360;52.992;6.796;2023-07-29T07:29:11;19.10;99.90
54126;DHT22;40360;52.992;6.796;2023-07-29T07:31:37;19.10;99.90
54126;DHT22;40360;52.992;6.796;2023-07-29T07:34:02;19.00;99.90
54126;DHT22;40360;52.992;6.796;2023-07-29T07:36:29;19.00;99.90
54126;DHT22;40360;52.992;6.796;2023-07-29T07:38:54;19.20;99.90
54126;DHT22;40360;52.992;6.796;2023-07-29T07:41:20;19.20;99.90
54126;DHT22;40360;52.992;6.796;2023-07-29T07:43:46;19.20;99.90
54126;DHT22;40360;52.992;6.796;2023-07-29T07:46:11;19.30;99.90
54126;DHT22;40360;52.992;6.796;2023-07-29T07:48:38;19.30;99.90
54126;DHT22;40360;52.992;6.796;2023-07-29T07:51:12;19.30;99.90
54126;DHT22;40360;52.992;6.796;2023-07-29T07:53:37;19.20;99.90
54126;DHT22;40360;52.992;6.796;2023-07-29T07:56:03;19.20;99.90
54126;DHT22;40360;52.992;6.796;2023-07-29T07:58:29;19.30;99.90
54126;DHT22;40360;52.992;6.796;2023-07-29T08:01:04;19.40;99.90
54126;DHT22;40360;52.992;6.796;2023-07-29T08:03:30;19.50;99.90
54126;DHT22;40360;52.992;6.796;2023-07-29T08:05:55;19.70;99.90
54126;DHT22;40360;52.992;6.796;2023-07-29T08:08:21;19.70;99.90
54126;DHT22;40360;52.992;6.796;2023-07-29T08:10:46;19.80;99.90
54126;DHT22;40360;52.992;6.796;2023-07-29T08:13:12;19.80;99.90
54126;DHT22;40360;52.992;6.796;2023-07-29T08:15:38;19.90;99.90
54126;DHT22;40360;52.992;6.796;2023-07-29T08:18:03;20.00;99.90
54126;DHT22;40360;52.992;6.796;2023-07-29T08:20:29;20.10;99.90
54126;DHT22;40360;52.992;6.796;2023-07-29T08:22:54;20.30;99.90
54126;DHT22;40360;52.992;6.796;2023-07-29T08:25:20;20.40;99.90
54126;DHT22;40360;52.992;6.796;2023-07-29T08:27:46;20.40;99.90
54126;DHT22;40360;52.992;6.796;2023-07-29T08:30:11;20.50;99.90
54126;DHT22;40360;52.992;6.796;2023-07-29T08:32:37;20.40;99.90
54126;DHT22;40360;52.992;6.796;2023-07-29T08:35:03;20.30;99.90
54126;DHT22;40360;52.992;6.796;2023-07-29T08:37:29;20.30;99.90
54126;DHT22;40360;52.992;6.796;2023-07-29T08:39:55;20.30;99.90
54126;DHT22;40360;52.992;6.796;2023-07-29T08:42:21;20.20;99.90
54126;DHT22;40360;52.992;6.796;2023-07-29T08:44:49;20.10;99.90
54126;DHT22;40360;52.992;6.796;2023-07-29T08:47:15;20.00;99.90
54126;DHT22;40360;52.992;6.796;2023-07-29T08:49:42;20.00;99.90
54126;DHT22;40360;52.992;6.796;2023-07-29T08:52:09;20.10;99.90
54126;DHT22;40360;52.992;6.796;2023-07-29T08:54:35;20.30;99.90
54126;DHT22;40360;52.992;6.796;2023-07-29T08:57:01;20.40;99.90
54126;DHT22;40360;52.992;6.796;2023-07-29T08:59:28;20.50;99.90
54126;DHT22;40360;52.992;6.796;2023-07-29T09:01:54;20.80;99.90
54126;DHT22;40360;52.992;6.796;2023-07-29T09:04:23;21.00;99.90
54126;DHT22;40360;52.992;6.796;2023-07-29T09:06:51;21.20;99.90
54126;DHT22;40360;52.992;6.796;2023-07-29T09:09:19;21.20;99.90
54126;DHT22;40360;52.992;6.796;2023-07-29T09:11:44;21.20;99.90
54126;DHT22;40360;52.992;6.796;2023-07-29T09:14:10;21.10;99.90
54126;DHT22;40360;52.992;6.796;2023-07-29T09:16:36;20.90;99.90
54126;DHT22;40360;52.992;6.796;2023-07-29T09:19:02;20.80;99.90
54126;DHT22;40360;52.992;6.796;2023-07-29T09:21:32;20.70;99.90
54126;DHT22;40360;52.992;6.796;2023-07-29T09:24:02;20.70;99.90
54126;DHT22;40360;52.992;6.796;2023-07-29T09:26:29;20.90;99.90
54126;DHT22;40360;52.992;6.796;2023-07-29T09:28:56;21.20;99.90
54126;DHT22;40360;52.992;6.796;2023-07-29T09:31:23;21.40;99.90
54126;DHT22;40360;52.992;6.796;2023-07-29T09:33:53;21.50;99.90
54126;DHT22;40360;52.992;6.796;2023-07-29T09:36:21;21.70;99.90
54126;DHT22;40360;52.992;6.796;2023-07-29T09:38:47;21.90;99.90
54126;DHT22;40360;52.992;6.796;2023-07-29T09:41:13;22.10;99.90
54126;DHT22;40360;52.992;6.796;2023-07-29T09:43:39;22.40;99.90
54126;DHT22;40360;52.992;6.796;2023-07-29T09:46:05;22.40;99.90
54126;DHT22;40360;52.992;6.796;2023-07-29T09:48:37;22.30;99.90
54126;DHT22;40360;52.992;6.796;2023-07-29T09:51:13;22.10;99.90
54126;DHT22;40360;52.992;6.796;2023-07-29T09:53:45;22.20;99.90
54126;DHT22;40360;52.992;6.796;2023-07-29T09:56:13;22.30;99.90
54126;DHT22;40360;52.992;6.796;2023-07-29T09:58:39;22.40;99.90
54126;DHT22;40360;52.992;6.796;2023-07-29T10:01:06;22.40;99.90
54126;DHT22;40360;52.992;6.796;2023-07-29T10:03:32;22.50;99.90
54126;DHT22;40360;52.992;6.796;2023-07-29T10:06:03;22.60;99.90
54126;DHT22;40360;52.992;6.796;2023-07-29T10:08:32;22.80;99.90
54126;DHT22;40360;52.992;6.796;2023-07-29T10:11:01;22.80;99.90
54126;DHT22;40360;52.992;6.796;2023-07-29T10:13:28;22.80;99.90
54126;DHT22;40360;52.992;6.796;2023-07-29T10:15:54;23.20;99.90
54126;DHT22;40360;52.992;6.796;2023-07-29T10:18:22;23.10;99.90
54126;DHT22;40360;52.992;6.796;2023-07-29T10:20:51;22.90;99.90
54126;DHT22;40360;52.992;6.796;2023-07-29T10:23:18;22.90;99.90
54126;DHT22;40360;52.992;6.796;2023-07-29T10:25:50;22.80;99.90
54126;DHT22;40360;52.992;6.796;2023-07-29T10:28:19;22.70;99.90
54126;DHT22;40360;52.992;6.796;2023-07-29T10:30:46;22.60;99.90
54126;DHT22;40360;52.992;6.796;2023-07-29T10:33:12;22.70;99.90
54126;DHT22;40360;52.992;6.796;2023-07-29T10:35:39;22.80;99.90
54126;DHT22;40360;52.992;6.796;2023-07-29T10:38:06;22.80;99.90
54126;DHT22;40360;52.992;6.796;2023-07-29T10:43:12;23.00;99.90
54126;DHT22;40360;52.992;6.796;2023-07-29T10:45:40;22.90;99.90
54126;DHT22;40360;52.992;6.796;2023-07-29T10:48:13;22.80;99.90
54126;DHT22;40360;52.992;6.796;2023-07-29T10:53:57;22.50;99.90
54126;DHT22;40360;52.992;6.796;2023-07-29T10:56:36;22.30;99.90
54126;DHT22;40360;52.992;6.796;2023-07-29T11:01:41;21.90;99.90
54126;DHT22;40360;52.992;6.796;2023-07-29T11:09:45;21.60;99.90
54126;DHT22;40360;52.992;6.796;2023-07-29T11:15:05;21.60;99.90
54126;DHT22;40360;52.992;6.796;2023-07-29T11:17:39;21.50;99.90
54126;DHT22;40360;52.992;6.796;2023-07-29T11:20:05;21.40;99.90
54126;DHT22;40360;52.992;6.796;2023-07-29T11:22:32;21.20;99.90
54126;DHT22;40360;52.992;6.796;2023-07-29T11:24:58;21.00;99.90
54126;DHT22;40360;52.992;6.796;2023-07-29T11:27:24;20.50;99.90
54126;DHT22;40360;52.992;6.796;2023-07-29T11:29:50;20.00;99.90
54126;DHT22;40360;52.992;6.796;2023-07-29T11:32:16;19.60;99.90
54126;DHT22;40360;52.992;6.796;2023-07-29T11:34:42;19.40;99.90
54126;DHT22;40360;52.992;6.796;2023-07-29T11:37:11;19.30;99.90
54126;DHT22;40360;52.992;6.796;2023-07-29T11:39:40;19.10;99.90
54126;DHT22;40360;52.992;6.796;2023-07-29T11:42:07;19.10;99.90
54126;DHT22;40360;52.992;6.796;2023-07-29T11:44:32;19.00;99.90
54126;DHT22;40360;52.992;6.796;2023-07-29T11:46:58;19.00;99.90
54126;DHT22;40360;52.992;6.796;2023-07-29T11:49:23;19.00;99.90
54126;DHT22;40360;52.992;6.796;2023-07-29T11:51:49;19.20;99.90
54126;DHT22;40360;52.992;6.796;2023-07-29T11:54:15;19.50;99.90
54126;DHT22;40360;52.992;6.796;2023-07-29T11:56:41;20.00;99.90
54126;DHT22;40360;52.992;6.796;2023-07-29T11:59:07;20.20;99.90
54126;DHT22;40360;52.992;6.796;2023-07-29T12:01:36;20.60;99.90
54126;DHT22;40360;52.992;6.796;2023-07-29T12:04:02;20.90;99.90
54126;DHT22;40360;52.992;6.796;2023-07-29T12:06:27;20.90;99.90
54126;DHT22;40360;52.992;6.796;2023-07-29T12:08:53;20.90;99.90
54126;DHT22;40360;52.992;6.796;2023-07-29T12:11:20;21.00;99.90
54126;DHT22;40360;52.992;6.796;2023-07-29T12:13:47;21.30;99.90
54126;DHT22;40360;52.992;6.796;2023-07-29T12:16:16;21.60;99.90
54126;DHT22;40360;52.992;6.796;2023-07-29T12:18:43;21.60;99.90
54126;DHT22;40360;52.992;6.796;2023-07-29T12:21:09;21.40;99.90
54126;DHT22;40360;52.992;6.796;2023-07-29T12:23:34;21.30;99.90
54126;DHT22;40360;52.992;6.796;2023-07-29T12:26:01;21.30;99.90
54126;DHT22;40360;52.992;6.796;2023-07-29T12:28:26;21.50;99.90
54126;DHT22;40360;52.992;6.796;2023-07-29T12:30:56;21.70;99.90
54126;DHT22;40360;52.992;6.796;2023-07-29T12:33:35;21.80;99.90
54126;DHT22;40360;52.992;6.796;2023-07-29T12:36:02;22.10;99.90
54126;DHT22;40360;52.992;6.796;2023-07-29T12:38:28;22.20;99.90
54126;DHT22;40360;52.992;6.796;2023-07-29T12:40:55;22.40;99.90
54126;DHT22;40360;52.992;6.796;2023-07-29T12:43:21;22.60;99.90
54126;DHT22;40360;52.992;6.796;2023-07-29T12:45:49;22.50;99.90
54126;DHT22;40360;52.992;6.796;2023-07-29T12:48:15;22.70;99.90
54126;DHT22;40360;52.992;6.796;2023-07-29T12:50:40;22.70;99.90
54126;DHT22;40360;52.992;6.796;2023-07-29T12:53:07;22.80;99.90
54126;DHT22;40360;52.992;6.796;2023-07-29T12:55:33;22.90;99.90
54126;DHT22;40360;52.992;6.796;2023-07-29T12:57:59;22.90;99.90
54126;DHT22;40360;52.992;6.796;2023-07-29T13:00:25;22.90;99.90
54126;DHT22;40360;52.992;6.796;2023-07-29T13:02:50;22.90;99.90
54126;DHT22;40360;52.992;6.796;2023-07-29T13:05:16;22.90;99.90
54126;DHT22;40360;52.992;6.796;2023-07-29T13:07:43;23.00;99.90
54126;DHT22;40360;52.992;6.796;2023-07-29T13:10:12;22.90;99.90
54126;DHT22;40360;52.992;6.796;2023-07-29T13:12:38;23.00;99.90
54126;DHT22;40360;52.992;6.796;2023-07-29T13:15:04;23.10;99.90
54126;DHT22;40360;52.992;6.796;2023-07-29T13:17:30;23.00;99.90
54126;DHT22;40360;52.992;6.796;2023-07-29T13:19:56;22.70;99.90
54126;DHT22;40360;52.992;6.796;2023-07-29T13:22:21;22.50;99.90
54126;DHT22;40360;52.992;6.796;2023-07-29T13:24:47;22.60;99.90
54126;DHT22;40360;52.992;6.796;2023-07-29T13:27:12;22.90;99.90
54126;DHT22;40360;52.992;6.796;2023-07-29T13:29:39;23.10;99.90
54126;DHT22;40360;52.992;6.796;2023-07-29T13:32:05;23.30;99.90
54126;DHT22;40360;52.992;6.796;2023-07-29T13:34:31;23.40;99.90
54126;DHT22;40360;52.992;6.796;2023-07-29T13:36:57;23.50;99.90
54126;DHT22;40360;52.992;6.796;2023-07-29T13:39:22;23.60;99.90
54126;DHT22;40360;52.992;6.796;2023-07-29T13:41:51;23.60;99.90
54126;DHT22;40360;52.992;6.796;2023-07-29T13:44:16;23.60;99.90
54126;DHT22;40360;52.992;6.796;2023-07-29T13:46:42;23.50;99.90
54126;DHT22;40360;52.992;6.796;2023-07-29T13:49:07;23.20;99.90
54126;DHT22;40360;52.992;6.796;2023-07-29T13:51:33;23.00;99.90
54126;DHT22;40360;52.992;6.796;2023-07-29T13:53:59;22.80;99.90
54126;DHT22;40360;52.992;6.796;2023-07-29T13:56:24;22.60;99.90
54126;DHT22;40360;52.992;6.796;2023-07-29T13:58:50;22.30;99.90
54126;DHT22;40360;52.992;6.796;2023-07-29T14:01:16;22.10;99.90
54126;DHT22;40360;52.992;6.796;2023-07-29T14:03:41;22.10;99.90
54126;DHT22;40360;52.992;6.796;2023-07-29T14:06:07;22.10;99.90
54126;DHT22;40360;52.992;6.796;2023-07-29T14:08:32;22.40;99.90
54126;DHT22;40360;52.992;6.796;2023-07-29T14:10:58;22.60;99.90
54126;DHT22;40360;52.992;6.796;2023-07-29T14:13:23;22.80;99.90
54126;DHT22;40360;52.992;6.796;2023-07-29T14:15:49;22.90;99.90
54126;DHT22;40360;52.992;6.796;2023-07-29T14:18:14;23.00;99.90
54126;DHT22;40360;52.992;6.796;2023-07-29T14:20:41;22.70;99.90
54126;DHT22;40360;52.992;6.796;2023-07-29T14:23:06;22.60;99.90
54126;DHT22;40360;52.992;6.796;2023-07-29T14:25:32;22.80;99.90
54126;DHT22;40360;52.992;6.796;2023-07-29T14:27:57;22.90;99.90
54126;DHT22;40360;52.992;6.796;2023-07-29T14:30:23;23.00;99.90
54126;DHT22;40360;52.992;6.796;2023-07-29T14:32:49;23.20;99.90
54126;DHT22;40360;52.992;6.796;2023-07-29T14:35:15;23.30;99.90
54126;DHT22;40360;52.992;6.796;2023-07-29T14:37:40;23.10;99.90
54126;DHT22;40360;52.992;6.796;2023-07-29T14:40:06;22.80;99.90
54126;DHT22;40360;52.992;6.796;2023-07-29T14:42:32;22.70;99.90
54126;DHT22;40360;52.992;6.796;2023-07-29T14:44:58;22.50;99.90
54126;DHT22;40360;52.992;6.796;2023-07-29T14:47:23;22.40;99.90
54126;DHT22;40360;52.992;6.796;2023-07-29T14:49:49;22.50;99.90
54126;DHT22;40360;52.992;6.796;2023-07-29T14:52:15;22.70;99.90
54126;DHT22;40360;52.992;6.796;2023-07-29T14:54:40;22.80;99.90
54126;DHT22;40360;52.992;6.796;2023-07-29T14:57:07;22.60;99.90
54126;DHT22;40360;52.992;6.796;2023-07-29T14:59:33;22.60;99.90
54126;DHT22;40360;52.992;6.796;2023-07-29T15:01:58;22.70;99.90
54126;DHT22;40360;52.992;6.796;2023-07-29T15:04:24;22.70;99.90
54126;DHT22;40360;52.992;6.796;2023-07-29T15:06:50;22.60;99.90
54126;DHT22;40360;52.992;6.796;2023-07-29T15:09:16;22.40;99.90
54126;DHT22;40360;52.992;6.796;2023-07-29T15:11:41;22.20;99.90
54126;DHT22;40360;52.992;6.796;2023-07-29T15:14:07;22.00;99.90
54126;DHT22;40360;52.992;6.796;2023-07-29T15:16:33;22.00;99.90
54126;DHT22;40360;52.992;6.796;2023-07-29T15:19:03;22.00;99.90
54126;DHT22;40360;52.992;6.796;2023-07-29T15:21:30;22.20;99.90
54126;DHT22;40360;52.992;6.796;2023-07-29T15:23:55;22.40;99.90
54126;DHT22;40360;52.992;6.796;2023-07-29T15:26:21;22.50;99.90
54126;DHT22;40360;52.992;6.796;2023-07-29T15:28:46;22.40;99.90
54126;DHT22;40360;52.992;6.796;2023-07-29T15:31:15;22.40;99.90
54126;DHT22;40360;52.992;6.796;2023-07-29T15:33:41;22.30;99.90
54126;DHT22;40360;52.992;6.796;2023-07-29T15:36:06;22.40;99.90
54126;DHT22;40360;52.992;6.796;2023-07-29T15:38:32;22.80;99.90
54126;DHT22;40360;52.992;6.796;2023-07-29T15:40:59;23.00;99.90
54126;DHT22;40360;52.992;6.796;2023-07-29T15:43:24;22.90;99.90
54126;DHT22;40360;52.992;6.796;2023-07-29T15:45:50;23.20;99.90
54126;DHT22;40360;52.992;6.796;2023-07-29T15:48:15;23.60;99.90
54126;DHT22;40360;52.992;6.796;2023-07-29T15:50:41;23.80;99.90
54126;DHT22;40360;52.992;6.796;2023-07-29T15:53:07;23.70;99.90
54126;DHT22;40360;52.992;6.796;2023-07-29T15:55:33;23.80;99.90
54126;DHT22;40360;52.992;6.796;2023-07-29T15:57:58;23.90;99.90
54126;DHT22;40360;52.992;6.796;2023-07-29T16:00:24;23.90;99.90